sensor_id;sensor_type;location;lat;lon;timestamp;P1;durP1;ratioP1;P2;durP2;ratioP2
45114;SDS011;30877;43.706;10.780;2024-02-14T00:01:22;10.27;;;4.85;;
45114;SDS011;30877;43.706;10.780;2024-02-14T00:03:57;22.30;;;11.98;;
45114;SDS011;30877;43.706;10.780;2024-02-14T00:06:26;27.52;;;13.85;;
45114;SDS011;30877;43.706;10.780;2024-02-14T00:08:55;39.65;;;20.67;;
45114;SDS011;30877;43.706;10.780;2024-02-14T00:11:25;27.38;;;12.95;;
45114;SDS011;30877;43.706;10.780;2024-02-14T00:13:54;23.08;;;11.70;;
45114;SDS011;30877;43.706;10.780;2024-02-14T00:16:25;20.42;;;10.20;;
45114;SDS011;30877;43.706;10.780;2024-02-14T00:19:01;12.90;;;7.78;;
45114;SDS011;30877;43.706;10.780;2024-02-14T00:21:30;12.38;;;6.90;;
45114;SDS011;30877;43.706;10.780;2024-02-14T00:24:03;11.48;;;6.80;;
45114;SDS011;30877;43.706;10.780;2024-02-14T00:26:32;9.35;;;5.47;;
45114;SDS011;30877;43.706;10.780;2024-02-14T00:29:05;9.18;;;5.22;;
45114;SDS011;30877;43.706;10.780;2024-02-14T00:31:37;7.03;;;5.07;;
45114;SDS011;30877;43.706;10.780;2024-02-14T00:34:09;7.07;;;4.38;;
45114;SDS011;30877;43.706;10.780;2024-02-14T00:36:39;7.43;;;4.57;;
45114;SDS011;30877;43.706;10.780;2024-02-14T00:39:07;6.22;;;4.10;;
45114;SDS011;30877;43.706;10.780;2024-02-14T00:41:37;7.78;;;4.22;;
45114;SDS011;30877;43.706;10.780;2024-02-14T00:44:08;7.72;;;3.17;;
45114;SDS011;30877;43.706;10.780;2024-02-14T00:46:38;6.65;;;3.20;;
45114;SDS011;30877;43.706;10.780;2024-02-14T00:49:09;5.55;;;2.75;;
45114;SDS011;30877;43.706;10.780;2024-02-14T00:51:42;4.90;;;2.63;;
45114;SDS011;30877;43.706;10.780;2024-02-14T00:54:11;6.53;;;2.80;;
45114;SDS011;30877;43.706;10.780;2024-02-14T00:56:43;6.22;;;2.60;;
45114;SDS011;30877;43.706;10.780;2024-02-14T00:59:16;5.60;;;2.30;;
45114;SDS011;30877;43.706;10.780;2024-02-14T01:01:46;5.10;;;2.60;;
45114;SDS011;30877;43.706;10.780;2024-02-14T01:04:16;6.38;;;2.90;;
45114;SDS011;30877;43.706;10.780;2024-02-14T01:06:47;4.20;;;2.40;;
45114;SDS011;30877;43.706;10.780;2024-02-14T01:09:20;4.75;;;2.45;;
45114;SDS011;30877;43.706;10.780;2024-02-14T01:11:50;5.45;;;2.20;;
45114;SDS011;30877;43.706;10.780;2024-02-14T01:14:19;3.88;;;2.47;;
45114;SDS011;30877;43.706;10.780;2024-02-14T01:16:50;5.30;;;2.70;;
45114;SDS011;30877;43.706;10.780;2024-02-14T01:19:24;3.97;;;2.53;;
45114;SDS011;30877;43.706;10.780;2024-02-14T01:21:57;5.78;;;2.63;;
45114;SDS011;30877;43.706;10.780;2024-02-14T01:24:26;3.42;;;2.25;;
45114;SDS011;30877;43.706;10.780;2024-02-14T01:26:57;3.60;;;2.15;;
45114;SDS011;30877;43.706;10.780;2024-02-14T01:29:28;4.50;;;2.90;;
45114;SDS011;30877;43.706;10.780;2024-02-14T01:31:56;5.32;;;3.35;;
45114;SDS011;30877;43.706;10.780;2024-02-14T01:34:27;7.78;;;4.13;;
45114;SDS011;30877;43.706;10.780;2024-02-14T01:36:59;5.45;;;3.33;;
45114;SDS011;30877;43.706;10.780;2024-02-14T01:39:28;5.57;;;4.30;;
45114;SDS011;30877;43.706;10.780;2024-02-14T01:42:00;6.30;;;3.88;;
45114;SDS011;30877;43.706;10.780;2024-02-14T01:44:34;7.25;;;4.10;;
45114;SDS011;30877;43.706;10.780;2024-02-14T01:47:04;6.13;;;4.32;;
45114;SDS011;30877;43.706;10.780;2024-02-14T01:49:37;8.85;;;5.15;;
45114;SDS011;30877;43.706;10.780;2024-02-14T01:52:07;6.05;;;3.92;;
45114;SDS011;30877;43.706;10.780;2024-02-14T01:54:36;7.05;;;4.35;;
45114;SDS011;30877;43.706;10.780;2024-02-14T01:57:07;7.57;;;4.57;;
45114;SDS011;30877;43.706;10.780;2024-02-14T01:59:40;8.60;;;4.32;;
45114;SDS011;30877;43.706;10.780;2024-02-14T02:02:09;5.35;;;3.92;;
45114;SDS011;30877;43.706;10.780;2024-02-14T02:04:41;8.18;;;4.18;;
45114;SDS011;30877;43.706;10.780;2024-02-14T02:07:11;5.88;;;3.75;;
45114;SDS011;30877;43.706;10.780;2024-02-14T02:09:42;4.72;;;3.60;;
45114;SDS011;30877;43.706;10.780;2024-02-14T02:12:12;8.02;;;4.15;;
45114;SDS011;30877;43.706;10.780;2024-02-14T02:14:41;7.97;;;4.32;;
45114;SDS011;30877;43.706;10.780;2024-02-14T02:17:11;9.25;;;4.40;;
45114;SDS011;30877;43.706;10.780;2024-02-14T02:19:42;5.70;;;4.15;;
45114;SDS011;30877;43.706;10.780;2024-02-14T02:22:10;6.32;;;4.65;;
45114;SDS011;30877;43.706;10.780;2024-02-14T02:24:41;5.30;;;3.22;;
45114;SDS011;30877;43.706;10.780;2024-02-14T02:27:12;6.82;;;3.47;;
45114;SDS011;30877;43.706;10.780;2024-02-14T02:29:43;5.28;;;2.90;;
45114;SDS011;30877;43.706;10.780;2024-02-14T02:32:13;3.83;;;2.72;;
45114;SDS011;30877;43.706;10.780;2024-02-14T02:34:44;5.65;;;2.50;;
45114;SDS011;30877;43.706;10.780;2024-02-14T02:37:13;4.30;;;2.40;;
45114;SDS011;30877;43.706;10.780;2024-02-14T02:39:47;4.32;;;2.63;;
45114;SDS011;30877;43.706;10.780;2024-02-14T02:42:19;5.63;;;2.60;;
45114;SDS011;30877;43.706;10.780;2024-02-14T02:44:49;6.13;;;2.60;;
45114;SDS011;30877;43.706;10.780;2024-02-14T02:47:18;6.72;;;2.63;;
45114;SDS011;30877;43.706;10.780;2024-02-14T02:49:48;4.57;;;2.70;;
45114;SDS011;30877;43.706;10.780;2024-02-14T02:52:19;3.92;;;2.35;;
45114;SDS011;30877;43.706;10.780;2024-02-14T02:54:52;5.22;;;2.45;;
45114;SDS011;30877;43.706;10.780;2024-02-14T02:57:21;6.03;;;2.38;;
45114;SDS011;30877;43.706;10.780;2024-02-14T02:59:51;5.30;;;2.15;;
45114;SDS011;30877;43.706;10.780;2024-02-14T03:02:22;8.70;;;2.53;;
45114;SDS011;30877;43.706;10.780;2024-02-14T03:04:52;4.57;;;2.50;;
45114;SDS011;30877;43.706;10.780;2024-02-14T03:07:22;2.92;;;2.03;;
45114;SDS011;30877;43.706;10.780;2024-02-14T03:09:54;3.28;;;1.90;;
45114;SDS011;30877;43.706;10.780;2024-02-14T03:12:23;3.50;;;2.10;;
45114;SDS011;30877;43.706;10.780;2024-02-14T03:14:56;4.35;;;1.88;;
45114;SDS011;30877;43.706;10.780;2024-02-14T03:17:26;3.13;;;1.92;;
45114;SDS011;30877;43.706;10.780;2024-02-14T03:19:56;2.92;;;2.17;;
45114;SDS011;30877;43.706;10.780;2024-02-14T03:22:25;2.65;;;1.60;;
45114;SDS011;30877;43.706;10.780;2024-02-14T03:24:56;2.92;;;1.58;;
45114;SDS011;30877;43.706;10.780;2024-02-14T03:27:26;3.75;;;2.20;;
45114;SDS011;30877;43.706;10.780;2024-02-14T03:29:54;2.60;;;1.50;;
45114;SDS011;30877;43.706;10.780;2024-02-14T03:32:26;3.95;;;1.90;;
45114;SDS011;30877;43.706;10.780;2024-02-14T03:34:54;3.50;;;2.05;;
45114;SDS011;30877;43.706;10.780;2024-02-14T03:37:23;2.03;;;1.55;;
45114;SDS011;30877;43.706;10.780;2024-02-14T03:39:52;2.55;;;2.03;;
45114;SDS011;30877;43.706;10.780;2024-02-14T03:42:24;3.97;;;1.77;;
45114;SDS011;30877;43.706;10.780;2024-02-14T03:44:53;3.63;;;1.90;;
45114;SDS011;30877;43.706;10.780;2024-02-14T03:47:30;1.90;;;1.55;;
45114;SDS011;30877;43.706;10.780;2024-02-14T03:50:05;3.72;;;1.65;;
45114;SDS011;30877;43.706;10.780;2024-02-14T03:52:36;2.65;;;1.52;;
45114;SDS011;30877;43.706;10.780;2024-02-14T03:55:05;4.28;;;1.45;;
45114;SDS011;30877;43.706;10.780;2024-02-14T03:57:38;1.85;;;1.63;;
45114;SDS011;30877;43.706;10.780;2024-02-14T04:00:08;3.42;;;1.92;;
45114;SDS011;30877;43.706;10.780;2024-02-14T04:02:40;2.80;;;1.92;;
45114;SDS011;30877;43.706;10.780;2024-02-14T04:05:09;3.22;;;1.90;;
45114;SDS011;30877;43.706;10.780;2024-02-14T04:07:39;3.35;;;2.22;;
45114;SDS011;30877;43.706;10.780;2024-02-14T04:10:08;2.72;;;2.30;;
45114;SDS011;30877;43.706;10.780;2024-02-14T04:12:41;4.47;;;2.40;;
45114;SDS011;30877;43.706;10.780;2024-02-14T04:15:11;4.20;;;2.22;;
45114;SDS011;30877;43.706;10.780;2024-02-14T04:17:41;3.55;;;2.55;;
45114;SDS011;30877;43.706;10.780;2024-02-14T04:20:10;3.63;;;2.55;;
45114;SDS011;30877;43.706;10.780;2024-02-14T04:22:40;4.85;;;2.70;;
45114;SDS011;30877;43.706;10.780;2024-02-14T04:25:11;4.63;;;2.90;;
45114;SDS011;30877;43.706;10.780;2024-02-14T04:27:43;3.42;;;2.40;;
45114;SDS011;30877;43.706;10.780;2024-02-14T04:30:13;3.97;;;2.83;;
45114;SDS011;30877;43.706;10.780;2024-02-14T04:32:42;4.07;;;2.97;;
45114;SDS011;30877;43.706;10.780;2024-02-14T04:35:11;4.55;;;3.15;;
45114;SDS011;30877;43.706;10.780;2024-02-14T04:37:41;5.60;;;2.95;;
45114;SDS011;30877;43.706;10.780;2024-02-14T04:40:13;4.20;;;2.53;;
45114;SDS011;30877;43.706;10.780;2024-02-14T04:42:45;3.80;;;2.70;;
45114;SDS011;30877;43.706;10.780;2024-02-14T04:45:14;4.05;;;2.40;;
45114;SDS011;30877;43.706;10.780;2024-02-14T04:47:44;5.18;;;2.90;;
45114;SDS011;30877;43.706;10.780;2024-02-14T04:50:13;4.03;;;3.00;;
45114;SDS011;30877;43.706;10.780;2024-02-14T04:52:43;5.13;;;3.10;;
45114;SDS011;30877;43.706;10.780;2024-02-14T04:55:12;5.88;;;2.80;;
45114;SDS011;30877;43.706;10.780;2024-02-14T04:57:41;5.13;;;3.17;;
45114;SDS011;30877;43.706;10.780;2024-02-14T05:00:14;3.67;;;2.70;;
45114;SDS011;30877;43.706;10.780;2024-02-14T05:02:45;4.63;;;2.95;;
45114;SDS011;30877;43.706;10.780;2024-02-14T05:05:15;3.90;;;2.80;;
45114;SDS011;30877;43.706;10.780;2024-02-14T05:07:46;3.85;;;2.90;;
45114;SDS011;30877;43.706;10.780;2024-02-14T05:10:16;5.28;;;2.80;;
45114;SDS011;30877;43.706;10.780;2024-02-14T05:12:47;4.65;;;3.17;;
45114;SDS011;30877;43.706;10.780;2024-02-14T05:15:18;3.55;;;2.70;;
45114;SDS011;30877;43.706;10.780;2024-02-14T05:17:51;4.28;;;2.72;;
45114;SDS011;30877;43.706;10.780;2024-02-14T05:20:20;4.00;;;3.00;;
45114;SDS011;30877;43.706;10.780;2024-02-14T05:22:49;4.50;;;2.78;;
45114;SDS011;30877;43.706;10.780;2024-02-14T05:25:19;4.45;;;2.65;;
45114;SDS011;30877;43.706;10.780;2024-02-14T05:27:49;4.20;;;2.97;;
45114;SDS011;30877;43.706;10.780;2024-02-14T05:30:19;4.00;;;3.47;;
45114;SDS011;30877;43.706;10.780;2024-02-14T05:32:48;4.07;;;2.55;;
45114;SDS011;30877;43.706;10.780;2024-02-14T05:35:22;3.42;;;2.55;;
45114;SDS011;30877;43.706;10.780;2024-02-14T05:37:52;3.28;;;2.17;;
45114;SDS011;30877;43.706;10.780;2024-02-14T05:40:23;4.10;;;2.08;;
45114;SDS011;30877;43.706;10.780;2024-02-14T05:42:54;3.08;;;2.20;;
45114;SDS011;30877;43.706;10.780;2024-02-14T05:45:26;2.60;;;1.95;;
45114;SDS011;30877;43.706;10.780;2024-02-14T05:47:57;4.22;;;1.80;;
45114;SDS011;30877;43.706;10.780;2024-02-14T05:50:26;4.63;;;1.92;;
45114;SDS011;30877;43.706;10.780;2024-02-14T05:52:56;2.67;;;1.65;;
45114;SDS011;30877;43.706;10.780;2024-02-14T05:55:25;3.45;;;1.95;;
45114;SDS011;30877;43.706;10.780;2024-02-14T05:57:55;4.40;;;2.15;;
45114;SDS011;30877;43.706;10.780;2024-02-14T06:00:28;4.10;;;2.50;;
45114;SDS011;30877;43.706;10.780;2024-02-14T06:02:58;11.15;;;6.38;;
45114;SDS011;30877;43.706;10.780;2024-02-14T06:05:26;21.88;;;11.18;;
45114;SDS011;30877;43.706;10.780;2024-02-14T06:07:58;19.60;;;10.52;;
45114;SDS011;30877;43.706;10.780;2024-02-14T06:10:27;17.17;;;8.00;;
45114;SDS011;30877;43.706;10.780;2024-02-14T06:12:58;14.40;;;8.70;;
45114;SDS011;30877;43.706;10.780;2024-02-14T06:15:31;11.13;;;5.38;;
45114;SDS011;30877;43.706;10.780;2024-02-14T06:18:00;6.93;;;4.10;;
45114;SDS011;30877;43.706;10.780;2024-02-14T06:20:30;5.55;;;3.08;;
45114;SDS011;30877;43.706;10.780;2024-02-14T06:23:00;5.20;;;2.67;;
45114;SDS011;30877;43.706;10.780;2024-02-14T06:25:32;4.93;;;2.50;;
45114;SDS011;30877;43.706;10.780;2024-02-14T06:28:01;5.07;;;2.58;;
45114;SDS011;30877;43.706;10.780;2024-02-14T06:30:32;4.07;;;2.17;;
45114;SDS011;30877;43.706;10.780;2024-02-14T06:33:02;4.60;;;2.40;;
45114;SDS011;30877;43.706;10.780;2024-02-14T06:35:31;3.90;;;2.47;;
45114;SDS011;30877;43.706;10.780;2024-02-14T06:38:03;3.92;;;2.33;;
45114;SDS011;30877;43.706;10.780;2024-02-14T06:40:34;8.25;;;2.58;;
45114;SDS011;30877;43.706;10.780;2024-02-14T06:43:03;5.35;;;2.88;;
45114;SDS011;30877;43.706;10.780;2024-02-14T06:45:35;7.85;;;3.63;;
45114;SDS011;30877;43.706;10.780;2024-02-14T06:48:07;6.10;;;2.80;;
45114;SDS011;30877;43.706;10.780;2024-02-14T06:50:39;7.85;;;3.63;;
45114;SDS011;30877;43.706;10.780;2024-02-14T06:53:09;11.75;;;4.40;;
45114;SDS011;30877;43.706;10.780;2024-02-14T06:55:40;11.13;;;4.75;;
45114;SDS011;30877;43.706;10.780;2024-02-14T06:58:10;10.70;;;4.00;;
45114;SDS011;30877;43.706;10.780;2024-02-14T07:00:43;8.10;;;3.78;;
45114;SDS011;30877;43.706;10.780;2024-02-14T07:03:12;5.43;;;3.00;;
45114;SDS011;30877;43.706;10.780;2024-02-14T07:05:42;5.70;;;3.00;;
45114;SDS011;30877;43.706;10.780;2024-02-14T07:08:11;6.35;;;2.67;;
45114;SDS011;30877;43.706;10.780;2024-02-14T07:10:41;4.22;;;2.83;;
45114;SDS011;30877;43.706;10.780;2024-02-14T07:13:11;7.65;;;3.10;;
45114;SDS011;30877;43.706;10.780;2024-02-14T07:15:44;7.13;;;4.20;;
45114;SDS011;30877;43.706;10.780;2024-02-14T07:18:15;9.30;;;4.57;;
45114;SDS011;30877;43.706;10.780;2024-02-14T07:20:47;8.23;;;4.50;;
45114;SDS011;30877;43.706;10.780;2024-02-14T07:23:18;8.63;;;4.38;;
45114;SDS011;30877;43.706;10.780;2024-02-14T07:25:47;8.50;;;3.95;;
45114;SDS011;30877;43.706;10.780;2024-02-14T07:28:17;5.45;;;3.70;;
45114;SDS011;30877;43.706;10.780;2024-02-14T07:30:49;7.32;;;3.70;;
45114;SDS011;30877;43.706;10.780;2024-02-14T07:33:18;4.85;;;2.95;;
45114;SDS011;30877;43.706;10.780;2024-02-14T07:35:48;4.93;;;2.85;;
45114;SDS011;30877;43.706;10.780;2024-02-14T07:38:18;3.53;;;2.55;;
45114;SDS011;30877;43.706;10.780;2024-02-14T07:40:47;4.88;;;2.90;;
45114;SDS011;30877;43.706;10.780;2024-02-14T07:43:17;6.00;;;3.05;;
45114;SDS011;30877;43.706;10.780;2024-02-14T07:45:47;5.63;;;3.08;;
45114;SDS011;30877;43.706;10.780;2024-02-14T07:48:18;7.20;;;3.35;;
45114;SDS011;30877;43.706;10.780;2024-02-14T07:50:47;5.57;;;3.22;;
45114;SDS011;30877;43.706;10.780;2024-02-14T07:53:17;9.05;;;3.53;;
45114;SDS011;30877;43.706;10.780;2024-02-14T07:55:46;8.80;;;4.88;;
45114;SDS011;30877;43.706;10.780;2024-02-14T07:58:14;7.47;;;4.13;;
45114;SDS011;30877;43.706;10.780;2024-02-14T08:00:44;6.05;;;3.88;;
45114;SDS011;30877;43.706;10.780;2024-02-14T08:03:16;8.48;;;4.00;;
45114;SDS011;30877;43.706;10.780;2024-02-14T08:05:46;10.70;;;4.38;;
45114;SDS011;30877;43.706;10.780;2024-02-14T08:08:17;6.50;;;3.88;;
45114;SDS011;30877;43.706;10.780;2024-02-14T08:10:47;6.05;;;4.03;;
45114;SDS011;30877;43.706;10.780;2024-02-14T08:13:17;6.47;;;3.83;;
45114;SDS011;30877;43.706;10.780;2024-02-14T08:15:47;7.55;;;4.90;;
45114;SDS011;30877;43.706;10.780;2024-02-14T08:18:19;6.60;;;4.28;;
45114;SDS011;30877;43.706;10.780;2024-02-14T08:20:50;8.82;;;5.40;;
45114;SDS011;30877;43.706;10.780;2024-02-14T08:23:20;9.60;;;3.70;;
45114;SDS011;30877;43.706;10.780;2024-02-14T08:25:49;9.82;;;4.50;;
45114;SDS011;30877;43.706;10.780;2024-02-14T08:28:18;7.78;;;4.20;;
45114;SDS011;30877;43.706;10.780;2024-02-14T08:30:48;7.22;;;4.50;;
45114;SDS011;30877;43.706;10.780;2024-02-14T08:33:22;7.63;;;4.32;;
45114;SDS011;30877;43.706;10.780;2024-02-14T08:35:54;8.25;;;4.47;;
45114;SDS011;30877;43.706;10.780;2024-02-14T08:38:25;7.85;;;4.25;;
45114;SDS011;30877;43.706;10.780;2024-02-14T08:40:56;7.00;;;4.78;;
45114;SDS011;30877;43.706;10.780;2024-02-14T08:43:25;7.93;;;4.35;;
45114;SDS011;30877;43.706;10.780;2024-02-14T08:45:57;8.10;;;4.10;;
45114;SDS011;30877;43.706;10.780;2024-02-14T08:48:28;8.98;;;4.45;;
45114;SDS011;30877;43.706;10.780;2024-02-14T08:51:04;5.47;;;3.75;;
45114;SDS011;30877;43.706;10.780;2024-02-14T08:53:34;6.40;;;4.65;;
45114;SDS011;30877;43.706;10.780;2024-02-14T08:56:05;7.85;;;5.20;;
45114;SDS011;30877;43.706;10.780;2024-02-14T08:58:37;10.65;;;5.53;;
45114;SDS011;30877;43.706;10.780;2024-02-14T09:01:07;8.02;;;4.88;;
45114;SDS011;30877;43.706;10.780;2024-02-14T09:03:45;8.32;;;5.15;;
45114;SDS011;30877;43.706;10.780;2024-02-14T09:06:17;6.72;;;4.22;;
45114;SDS011;30877;43.706;10.780;2024-02-14T09:08:47;8.13;;;5.30;;
45114;SDS011;30877;43.706;10.780;2024-02-14T09:11:18;6.68;;;4.38;;
45114;SDS011;30877;43.706;10.780;2024-02-14T09:13:47;7.70;;;4.65;;
45114;SDS011;30877;43.706;10.780;2024-02-14T09:16:19;8.43;;;5.05;;
45114;SDS011;30877;43.706;10.780;2024-02-14T09:18:51;7.97;;;4.90;;
45114;SDS011;30877;43.706;10.780;2024-02-14T09:21:21;8.52;;;4.65;;
45114;SDS011;30877;43.706;10.780;2024-02-14T09:23:50;8.23;;;4.97;;
45114;SDS011;30877;43.706;10.780;2024-02-14T09:26:20;8.27;;;5.03;;
45114;SDS011;30877;43.706;10.780;2024-02-14T09:28:50;7.85;;;5.18;;
45114;SDS011;30877;43.706;10.780;2024-02-14T09:31:20;6.30;;;4.65;;
45114;SDS011;30877;43.706;10.780;2024-02-14T09:33:51;7.07;;;4.88;;
45114;SDS011;30877;43.706;10.780;2024-02-14T09:36:25;7.55;;;4.70;;
45114;SDS011;30877;43.706;10.780;2024-02-14T09:38:55;7.78;;;4.93;;
45114;SDS011;30877;43.706;10.780;2024-02-14T09:41:29;6.50;;;4.35;;
45114;SDS011;30877;43.706;10.780;2024-02-14T09:44:05;7.68;;;4.82;;
45114;SDS011;30877;43.706;10.780;2024-02-14T09:46:35;5.90;;;4.15;;
45114;SDS011;30877;43.706;10.780;2024-02-14T09:49:09;8.48;;;4.32;;
45114;SDS011;30877;43.706;10.780;2024-02-14T09:51:43;7.10;;;4.05;;
45114;SDS011;30877;43.706;10.780;2024-02-14T09:54:17;7.38;;;4.63;;
45114;SDS011;30877;43.706;10.780;2024-02-14T09:56:48;7.00;;;4.35;;
45114;SDS011;30877;43.706;10.780;2024-02-14T09:59:21;7.35;;;4.53;;
45114;SDS011;30877;43.706;10.780;2024-02-14T10:01:51;6.38;;;4.60;;
45114;SDS011;30877;43.706;10.780;2024-02-14T10:04:24;6.05;;;4.22;;
45114;SDS011;30877;43.706;10.780;2024-02-14T10:06:56;6.60;;;4.43;;
45114;SDS011;30877;43.706;10.780;2024-02-14T10:09:26;8.50;;;4.72;;
45114;SDS011;30877;43.706;10.780;2024-02-14T10:11:59;5.78;;;4.13;;
45114;SDS011;30877;43.706;10.780;2024-02-14T10:14:30;7.97;;;4.75;;
45114;SDS011;30877;43.706;10.780;2024-02-14T10:17:01;6.68;;;4.97;;
45114;SDS011;30877;43.706;10.780;2024-02-14T10:19:33;5.82;;;4.60;;
45114;SDS011;30877;43.706;10.780;2024-02-14T10:22:01;6.43;;;4.80;;
45114;SDS011;30877;43.706;10.780;2024-02-14T10:24:34;6.88;;;4.32;;
45114;SDS011;30877;43.706;10.780;2024-02-14T10:27:05;7.43;;;4.97;;
45114;SDS011;30877;43.706;10.780;2024-02-14T10:29:38;7.78;;;4.50;;
45114;SDS011;30877;43.706;10.780;2024-02-14T10:32:07;7.68;;;5.13;;
45114;SDS011;30877;43.706;10.780;2024-02-14T10:34:38;9.85;;;5.00;;
45114;SDS011;30877;43.706;10.780;2024-02-14T10:37:08;7.65;;;4.68;;
45114;SDS011;30877;43.706;10.780;2024-02-14T10:39:41;7.30;;;4.90;;
45114;SDS011;30877;43.706;10.780;2024-02-14T10:42:11;7.43;;;4.55;;
45114;SDS011;30877;43.706;10.780;2024-02-14T10:44:42;7.18;;;4.50;;
45114;SDS011;30877;43.706;10.780;2024-02-14T10:47:12;6.65;;;4.10;;
45114;SDS011;30877;43.706;10.780;2024-02-14T10:49:48;9.25;;;4.90;;
45114;SDS011;30877;43.706;10.780;2024-02-14T10:52:20;8.73;;;4.35;;
45114;SDS011;30877;43.706;10.780;2024-02-14T10:54:51;6.88;;;4.03;;
45114;SDS011;30877;43.706;10.780;2024-02-14T10:57:25;8.80;;;5.00;;
45114;SDS011;30877;43.706;10.780;2024-02-14T10:59:54;7.18;;;4.57;;
45114;SDS011;30877;43.706;10.780;2024-02-14T11:02:24;6.43;;;4.45;;
45114;SDS011;30877;43.706;10.780;2024-02-14T11:04:58;8.18;;;4.50;;
45114;SDS011;30877;43.706;10.780;2024-02-14T11:07:28;5.47;;;3.90;;
45114;SDS011;30877;43.706;10.780;2024-02-14T11:10:04;8.55;;;4.30;;
45114;SDS011;30877;43.706;10.780;2024-02-14T11:12:35;5.88;;;3.72;;
45114;SDS011;30877;43.706;10.780;2024-02-14T11:15:10;5.75;;;3.85;;
45114;SDS011;30877;43.706;10.780;2024-02-14T11:17:42;6.32;;;4.32;;
45114;SDS011;30877;43.706;10.780;2024-02-14T11:20:15;6.70;;;3.80;;
45114;SDS011;30877;43.706;10.780;2024-02-14T11:22:53;4.72;;;3.38;;
45114;SDS011;30877;43.706;10.780;2024-02-14T11:25:29;6.43;;;4.13;;
45114;SDS011;30877;43.706;10.780;2024-02-14T11:28:12;6.70;;;4.18;;
45114;SDS011;30877;43.706;10.780;2024-02-14T11:30:41;7.07;;;4.15;;
45114;SDS011;30877;43.706;10.780;2024-02-14T11:33:13;4.60;;;3.58;;
45114;SDS011;30877;43.706;10.780;2024-02-14T11:35:49;5.57;;;3.72;;
45114;SDS011;30877;43.706;10.780;2024-02-14T11:38:20;5.35;;;3.60;;
45114;SDS011;30877;43.706;10.780;2024-02-14T11:40:49;7.30;;;3.97;;
45114;SDS011;30877;43.706;10.780;2024-02-14T11:43:20;6.78;;;3.63;;
45114;SDS011;30877;43.706;10.780;2024-02-14T11:45:49;6.82;;;3.67;;
45114;SDS011;30877;43.706;10.780;2024-02-14T11:48:20;6.78;;;3.97;;
45114;SDS011;30877;43.706;10.780;2024-02-14T11:50:53;6.38;;;4.50;;
45114;SDS011;30877;43.706;10.780;2024-02-14T11:53:25;9.35;;;4.22;;
45114;SDS011;30877;43.706;10.780;2024-02-14T11:55:55;8.80;;;6.00;;
45114;SDS011;30877;43.706;10.780;2024-02-14T11:58:27;7.75;;;4.50;;
45114;SDS011;30877;43.706;10.780;2024-02-14T12:00:58;6.53;;;4.50;;
45114;SDS011;30877;43.706;10.780;2024-02-14T12:03:34;7.82;;;3.83;;
45114;SDS011;30877;43.706;10.780;2024-02-14T12:06:05;6.55;;;4.00;;
45114;SDS011;30877;43.706;10.780;2024-02-14T12:08:37;7.30;;;4.60;;
45114;SDS011;30877;43.706;10.780;2024-02-14T12:11:05;6.78;;;4.30;;
45114;SDS011;30877;43.706;10.780;2024-02-14T12:13:34;9.52;;;4.72;;
45114;SDS011;30877;43.706;10.780;2024-02-14T12:16:05;6.75;;;4.85;;
45114;SDS011;30877;43.706;10.780;2024-02-14T12:18:34;7.82;;;3.80;;
45114;SDS011;30877;43.706;10.780;2024-02-14T12:21:05;7.22;;;3.80;;
45114;SDS011;30877;43.706;10.780;2024-02-14T12:23:35;6.72;;;3.90;;
45114;SDS011;30877;43.706;10.780;2024-02-14T12:26:04;6.47;;;3.90;;
45114;SDS011;30877;43.706;10.780;2024-02-14T12:28:34;6.30;;;3.70;;
45114;SDS011;30877;43.706;10.780;2024-02-14T12:31:04;6.53;;;3.63;;
45114;SDS011;30877;43.706;10.780;2024-02-14T12:33:33;5.68;;;3.67;;
45114;SDS011;30877;43.706;10.780;2024-02-14T12:36:07;6.50;;;3.83;;
45114;SDS011;30877;43.706;10.780;2024-02-14T12:38:38;5.75;;;3.67;;
45114;SDS011;30877;43.706;10.780;2024-02-14T12:41:08;5.13;;;3.40;;
45114;SDS011;30877;43.706;10.780;2024-02-14T12:43:37;5.75;;;3.92;;
45114;SDS011;30877;43.706;10.780;2024-02-14T12:46:06;5.85;;;4.30;;
45114;SDS011;30877;43.706;10.780;2024-02-14T12:48:34;7.60;;;3.95;;
45114;SDS011;30877;43.706;10.780;2024-02-14T12:51:04;8.23;;;3.80;;
45114;SDS011;30877;43.706;10.780;2024-02-14T12:53:34;4.10;;;3.10;;
45114;SDS011;30877;43.706;10.780;2024-02-14T12:56:04;5.53;;;3.60;;
45114;SDS011;30877;43.706;10.780;2024-02-14T12:58:33;6.85;;;4.35;;
45114;SDS011;30877;43.706;10.780;2024-02-14T13:01:02;8.77;;;4.20;;
45114;SDS011;30877;43.706;10.780;2024-02-14T13:03:35;6.45;;;4.25;;
45114;SDS011;30877;43.706;10.780;2024-02-14T13:06:04;6.00;;;3.95;;
45114;SDS011;30877;43.706;10.780;2024-02-14T13:08:35;7.40;;;4.10;;
45114;SDS011;30877;43.706;10.780;2024-02-14T13:11:06;7.18;;;4.18;;
45114;SDS011;30877;43.706;10.780;2024-02-14T13:13:36;5.40;;;4.05;;
45114;SDS011;30877;43.706;10.780;2024-02-14T13:16:08;6.35;;;3.58;;
45114;SDS011;30877;43.706;10.780;2024-02-14T13:18:36;7.05;;;4.55;;
45114;SDS011;30877;43.706;10.780;2024-02-14T13:21:05;7.25;;;4.63;;
45114;SDS011;30877;43.706;10.780;2024-02-14T13:23:36;7.38;;;4.22;;
45114;SDS011;30877;43.706;10.780;2024-02-14T13:26:06;5.45;;;4.40;;
45114;SDS011;30877;43.706;10.780;2024-02-14T13:28:34;8.02;;;4.18;;
45114;SDS011;30877;43.706;10.780;2024-02-14T13:31:04;6.38;;;4.13;;
45114;SDS011;30877;43.706;10.780;2024-02-14T13:33:35;9.00;;;6.22;;
45114;SDS011;30877;43.706;10.780;2024-02-14T13:36:05;6.43;;;3.80;;
45114;SDS011;30877;43.706;10.780;2024-02-14T13:38:34;5.03;;;3.72;;
45114;SDS011;30877;43.706;10.780;2024-02-14T13:41:05;6.38;;;3.90;;
45114;SDS011;30877;43.706;10.780;2024-02-14T13:43:34;5.78;;;3.38;;
45114;SDS011;30877;43.706;10.780;2024-02-14T13:46:04;8.15;;;3.92;;
45114;SDS011;30877;43.706;10.780;2024-02-14T13:48:33;7.28;;;4.45;;
45114;SDS011;30877;43.706;10.780;2024-02-14T13:51:03;7.63;;;4.38;;
45114;SDS011;30877;43.706;10.780;2024-02-14T13:53:32;8.02;;;4.43;;
45114;SDS011;30877;43.706;10.780;2024-02-14T13:56:03;8.90;;;3.95;;
45114;SDS011;30877;43.706;10.780;2024-02-14T13:58:34;4.60;;;3.40;;
45114;SDS011;30877;43.706;10.780;2024-02-14T14:01:05;4.90;;;3.03;;
45114;SDS011;30877;43.706;10.780;2024-02-14T14:03:34;6.50;;;3.58;;
45114;SDS011;30877;43.706;10.780;2024-02-14T14:06:04;5.55;;;2.85;;
45114;SDS011;30877;43.706;10.780;2024-02-14T14:08:36;8.55;;;2.85;;
45114;SDS011;30877;43.706;10.780;2024-02-14T14:11:09;5.38;;;2.83;;
45114;SDS011;30877;43.706;10.780;2024-02-14T14:13:41;4.47;;;2.83;;
45114;SDS011;30877;43.706;10.780;2024-02-14T14:16:09;4.82;;;2.60;;
45114;SDS011;30877;43.706;10.780;2024-02-14T14:18:40;2.92;;;2.42;;
45114;SDS011;30877;43.706;10.780;2024-02-14T14:21:08;4.45;;;2.40;;
45114;SDS011;30877;43.706;10.780;2024-02-14T14:23:38;2.47;;;1.88;;
45114;SDS011;30877;43.706;10.780;2024-02-14T14:26:07;6.38;;;2.30;;
45114;SDS011;30877;43.706;10.780;2024-02-14T14:28:37;4.63;;;2.33;;
45114;SDS011;30877;43.706;10.780;2024-02-14T14:31:06;4.55;;;2.17;;
45114;SDS011;30877;43.706;10.780;2024-02-14T14:33:39;4.13;;;2.20;;
45114;SDS011;30877;43.706;10.780;2024-02-14T14:36:11;3.90;;;1.80;;
45114;SDS011;30877;43.706;10.780;2024-02-14T14:38:41;4.30;;;2.13;;
45114;SDS011;30877;43.706;10.780;2024-02-14T14:41:13;2.33;;;1.60;;
45114;SDS011;30877;43.706;10.780;2024-02-14T14:43:42;4.55;;;1.85;;
45114;SDS011;30877;43.706;10.780;2024-02-14T14:46:11;5.32;;;1.77;;
45114;SDS011;30877;43.706;10.780;2024-02-14T14:48:40;2.75;;;1.65;;
45114;SDS011;30877;43.706;10.780;2024-02-14T14:51:12;2.55;;;1.40;;
45114;SDS011;30877;43.706;10.780;2024-02-14T14:53:42;3.50;;;1.42;;